sensor_id;sensor_type;location;lat;lon;timestamp;P1;durP1;ratioP1;P2;durP2;ratioP2
43962;SDS011;29622;45.534;9.242;2023-08-01T00:01:56;7.70;;;3.67;;
43962;SDS011;29622;45.534;9.242;2023-08-01T00:06:57;11.57;;;5.47;;
43962;SDS011;29622;45.534;9.242;2023-08-01T00:11:58;7.68;;;3.72;;
43962;SDS011;29622;45.534;9.242;2023-08-01T00:16:58;7.10;;;4.65;;
43962;SDS011;29622;45.534;9.242;2023-08-01T00:21:59;11.20;;;5.53;;
43962;SDS011;29622;45.534;9.242;2023-08-01T00:26:59;7.47;;;2.30;;
43962;SDS011;29622;45.534;9.242;2023-08-01T00:32:00;5.53;;;2.75;;
43962;SDS011;29622;45.534;9.242;2023-08-01T00:37:01;8.10;;;4.90;;
43962;SDS011;29622;45.534;9.242;2023-08-01T00:42:01;7.65;;;5.43;;
43962;SDS011;29622;45.534;9.242;2023-08-01T00:47:02;8.02;;;4.80;;
43962;SDS011;29622;45.534;9.242;2023-08-01T00:52:03;4.38;;;1.85;;
43962;SDS011;29622;45.534;9.242;2023-08-01T00:57:05;3.80;;;2.33;;
43962;SDS011;29622;45.534;9.242;2023-08-01T01:02:06;8.80;;;4.95;;
43962;SDS011;29622;45.534;9.242;2023-08-01T01:07:06;10.48;;;4.82;;
43962;SDS011;29622;45.534;9.242;2023-08-01T01:12:08;9.52;;;5.28;;
43962;SDS011;29622;45.534;9.242;2023-08-01T01:17:09;14.60;;;6.38;;
43962;SDS011;29622;45.534;9.242;2023-08-01T01:22:09;13.35;;;5.25;;
43962;SDS011;29622;45.534;9.242;2023-08-01T01:27:11;4.45;;;3.03;;
43962;SDS011;29622;45.534;9.242;2023-08-01T01:32:12;8.25;;;3.90;;
43962;SDS011;29622;45.534;9.242;2023-08-01T01:37:13;13.27;;;4.72;;
43962;SDS011;29622;45.534;9.242;2023-08-01T01:42:14;7.45;;;4.93;;
43962;SDS011;29622;45.534;9.242;2023-08-01T01:47:15;3.15;;;1.77;;
43962;SDS011;29622;45.534;9.242;2023-08-01T01:52:15;9.18;;;4.80;;
43962;SDS011;29622;45.534;9.242;2023-08-01T01:57:16;15.18;;;5.55;;
43962;SDS011;29622;45.534;9.242;2023-08-01T02:02:17;12.40;;;4.00;;
43962;SDS011;29622;45.534;9.242;2023-08-01T02:07:18;6.65;;;4.60;;
43962;SDS011;29622;45.534;9.242;2023-08-01T02:12:18;3.75;;;2.20;;
43962;SDS011;29622;45.534;9.242;2023-08-01T02:17:19;8.63;;;4.15;;
43962;SDS011;29622;45.534;9.242;2023-08-01T02:22:19;12.38;;;4.45;;
43962;SDS011;29622;45.534;9.242;2023-08-01T02:27:20;7.95;;;3.75;;
43962;SDS011;29622;45.534;9.242;2023-08-01T02:32:21;5.07;;;3.35;;
43962;SDS011;29622;45.534;9.242;2023-08-01T02:37:22;8.13;;;4.55;;
43962;SDS011;29622;45.534;9.242;2023-08-01T02:42:24;4.85;;;2.25;;
43962;SDS011;29622;45.534;9.242;2023-08-01T02:47:24;2.30;;;1.52;;
43962;SDS011;29622;45.534;9.242;2023-08-01T02:52:25;4.57;;;2.53;;
43962;SDS011;29622;45.534;9.242;2023-08-01T02:57:25;5.97;;;3.25;;
43962;SDS011;29622;45.534;9.242;2023-08-01T03:02:26;5.55;;;2.05;;
43962;SDS011;29622;45.534;9.242;2023-08-01T03:07:27;12.48;;;3.72;;
43962;SDS011;29622;45.534;9.242;2023-08-01T03:12:28;3.97;;;1.88;;
43962;SDS011;29622;45.534;9.242;2023-08-01T03:17:29;7.13;;;2.35;;
43962;SDS011;29622;45.534;9.242;2023-08-01T03:22:29;2.60;;;1.60;;
43962;SDS011;29622;45.534;9.242;2023-08-01T03:27:30;3.13;;;1.85;;
43962;SDS011;29622;45.534;9.242;2023-08-01T03:32:31;3.75;;;1.52;;
43962;SDS011;29622;45.534;9.242;2023-08-01T03:37:32;3.20;;;1.52;;
43962;SDS011;29622;45.534;9.242;2023-08-01T03:42:33;3.38;;;1.95;;
43962;SDS011;29622;45.534;9.242;2023-08-01T03:47:33;5.97;;;2.10;;
43962;SDS011;29622;45.534;9.242;2023-08-01T03:52:35;3.22;;;1.65;;
43962;SDS011;29622;45.534;9.242;2023-08-01T03:57:36;3.15;;;1.60;;
43962;SDS011;29622;45.534;9.242;2023-08-01T04:02:41;2.65;;;1.20;;
43962;SDS011;29622;45.534;9.242;2023-08-01T04:07:42;1.25;;;0.80;;
43962;SDS011;29622;45.534;9.242;2023-08-01T04:12:43;3.42;;;1.58;;
43962;SDS011;29622;45.534;9.242;2023-08-01T04:17:44;5.07;;;1.50;;
43962;SDS011;29622;45.534;9.242;2023-08-01T04:22:45;9.85;;;2.75;;
43962;SDS011;29622;45.534;9.242;2023-08-01T04:27:45;3.70;;;1.55;;
43962;SDS011;29622;45.534;9.242;2023-08-01T04:32:46;6.03;;;2.67;;
43962;SDS011;29622;45.534;9.242;2023-08-01T04:37:46;4.03;;;1.20;;
43962;SDS011;29622;45.534;9.242;2023-08-01T04:42:47;2.95;;;1.50;;
43962;SDS011;29622;45.534;9.242;2023-08-01T04:47:48;3.78;;;1.60;;
43962;SDS011;29622;45.534;9.242;2023-08-01T04:52:48;3.20;;;1.98;;
43962;SDS011;29622;45.534;9.242;2023-08-01T04:57:49;6.55;;;2.00;;
43962;SDS011;29622;45.534;9.242;2023-08-01T05:02:49;5.68;;;2.47;;
43962;SDS011;29622;45.534;9.242;2023-08-01T05:07:50;3.03;;;1.52;;
43962;SDS011;29622;45.534;9.242;2023-08-01T05:12:50;3.42;;;1.80;;
43962;SDS011;29622;45.534;9.242;2023-08-01T05:17:52;5.45;;;2.35;;
43962;SDS011;29622;45.534;9.242;2023-08-01T05:22:53;5.03;;;2.40;;
43962;SDS011;29622;45.534;9.242;2023-08-01T05:27:53;5.57;;;2.35;;
43962;SDS011;29622;45.534;9.242;2023-08-01T05:32:54;5.25;;;2.03;;
43962;SDS011;29622;45.534;9.242;2023-08-01T05:37:55;7.63;;;3.40;;
43962;SDS011;29622;45.534;9.242;2023-08-01T05:42:55;10.13;;;3.30;;
43962;SDS011;29622;45.534;9.242;2023-08-01T05:47:56;6.68;;;3.45;;
43962;SDS011;29622;45.534;9.242;2023-08-01T05:52:57;5.20;;;3.50;;
43962;SDS011;29622;45.534;9.242;2023-08-01T05:57:57;6.55;;;4.13;;
43962;SDS011;29622;45.534;9.242;2023-08-01T06:02:58;5.78;;;3.38;;
43962;SDS011;29622;45.534;9.242;2023-08-01T06:07:59;9.68;;;3.97;;
43962;SDS011;29622;45.534;9.242;2023-08-01T06:12:59;4.05;;;2.67;;
43962;SDS011;29622;45.534;9.242;2023-08-01T06:18:00;3.72;;;1.48;;
43962;SDS011;29622;45.534;9.242;2023-08-01T06:23:02;7.50;;;3.95;;
43962;SDS011;29622;45.534;9.242;2023-08-01T06:28:02;4.88;;;3.08;;
43962;SDS011;29622;45.534;9.242;2023-08-01T06:33:03;9.65;;;3.00;;
43962;SDS011;29622;45.534;9.242;2023-08-01T06:38:04;9.98;;;2.42;;
43962;SDS011;29622;45.534;9.242;2023-08-01T06:43:04;7.40;;;3.55;;
43962;SDS011;29622;45.534;9.242;2023-08-01T06:48:05;8.38;;;2.85;;
43962;SDS011;29622;45.534;9.242;2023-08-01T06:53:06;6.90;;;1.88;;
43962;SDS011;29622;45.534;9.242;2023-08-01T06:58:06;6.93;;;2.42;;
43962;SDS011;29622;45.534;9.242;2023-08-01T07:03:08;7.47;;;3.38;;
43962;SDS011;29622;45.534;9.242;2023-08-01T07:08:08;4.75;;;2.53;;
43962;SDS011;29622;45.534;9.242;2023-08-01T07:13:09;4.95;;;2.20;;
43962;SDS011;29622;45.534;9.242;2023-08-01T07:18:09;8.98;;;2.80;;
43962;SDS011;29622;45.534;9.242;2023-08-01T07:23:10;4.28;;;1.95;;
43962;SDS011;29622;45.534;9.242;2023-08-01T07:28:11;5.35;;;2.47;;
43962;SDS011;29622;45.534;9.242;2023-08-01T07:33:11;4.00;;;1.70;;
43962;SDS011;29622;45.534;9.242;2023-08-01T07:38:13;2.38;;;1.67;;
43962;SDS011;29622;45.534;9.242;2023-08-01T07:43:13;4.03;;;1.67;;
43962;SDS011;29622;45.534;9.242;2023-08-01T07:48:14;4.22;;;1.90;;
43962;SDS011;29622;45.534;9.242;2023-08-01T07:53:15;2.97;;;1.45;;
43962;SDS011;29622;45.534;9.242;2023-08-01T07:58:16;5.35;;;2.03;;
43962;SDS011;29622;45.534;9.242;2023-08-01T08:03:17;7.65;;;2.33;;
43962;SDS011;29622;45.534;9.242;2023-08-01T08:08:19;4.80;;;1.30;;
43962;SDS011;29622;45.534;9.242;2023-08-01T08:13:19;4.57;;;2.47;;
43962;SDS011;29622;45.534;9.242;2023-08-01T08:18:20;5.35;;;1.85;;
43962;SDS011;29622;45.534;9.242;2023-08-01T08:23:21;8.10;;;3.22;;
43962;SDS011;29622;45.534;9.242;2023-08-01T08:28:29;8.93;;;3.03;;
43962;SDS011;29622;45.534;9.242;2023-08-01T08:33:32;8.20;;;3.00;;
43962;SDS011;29622;45.534;9.242;2023-08-01T08:38:33;17.52;;;3.20;;
43962;SDS011;29622;45.534;9.242;2023-08-01T08:43:34;17.98;;;3.60;;
43962;SDS011;29622;45.534;9.242;2023-08-01T08:48:35;9.23;;;2.25;;
43962;SDS011;29622;45.534;9.242;2023-08-01T08:53:37;11.18;;;3.25;;
43962;SDS011;29622;45.534;9.242;2023-08-01T08:58:40;20.50;;;2.88;;
43962;SDS011;29622;45.534;9.242;2023-08-01T09:03:41;16.45;;;3.63;;
43962;SDS011;29622;45.534;9.242;2023-08-01T09:08:46;14.30;;;2.88;;
43962;SDS011;29622;45.534;9.242;2023-08-01T09:13:51;11.60;;;3.47;;
43962;SDS011;29622;45.534;9.242;2023-08-01T09:18:53;9.93;;;3.85;;
43962;SDS011;29622;45.534;9.242;2023-08-01T09:23:54;17.92;;;3.42;;
43962;SDS011;29622;45.534;9.242;2023-08-01T09:28:55;11.35;;;3.22;;
43962;SDS011;29622;45.534;9.242;2023-08-01T09:33:56;8.65;;;3.72;;
43962;SDS011;29622;45.534;9.242;2023-08-01T09:38:58;6.88;;;3.70;;
43962;SDS011;29622;45.534;9.242;2023-08-01T09:43:59;19.48;;;5.60;;
43962;SDS011;29622;45.534;9.242;2023-08-01T09:49:07;11.68;;;4.03;;
43962;SDS011;29622;45.534;9.242;2023-08-01T09:54:09;15.95;;;5.13;;
43962;SDS011;29622;45.534;9.242;2023-08-01T09:59:10;10.50;;;4.18;;
43962;SDS011;29622;45.534;9.242;2023-08-01T10:04:11;17.75;;;4.60;;
43962;SDS011;29622;45.534;9.242;2023-08-01T10:09:13;8.32;;;3.67;;
43962;SDS011;29622;45.534;9.242;2023-08-01T10:14:15;7.03;;;3.85;;
43962;SDS011;29622;45.534;9.242;2023-08-01T10:19:16;7.65;;;3.55;;
43962;SDS011;29622;45.534;9.242;2023-08-01T10:24:18;9.48;;;3.03;;
43962;SDS011;29622;45.534;9.242;2023-08-01T10:29:19;6.20;;;3.55;;
43962;SDS011;29622;45.534;9.242;2023-08-01T10:34:21;9.38;;;2.90;;
43962;SDS011;29622;45.534;9.242;2023-08-01T10:39:22;8.32;;;4.00;;
43962;SDS011;29622;45.534;9.242;2023-08-01T10:44:24;8.85;;;4.07;;
43962;SDS011;29622;45.534;9.242;2023-08-01T10:54:45;8.90;;;4.00;;
43962;SDS011;29622;45.534;9.242;2023-08-01T10:59:46;12.32;;;3.22;;
43962;SDS011;29622;45.534;9.242;2023-08-01T11:05:01;8.32;;;3.13;;
43962;SDS011;29622;45.534;9.242;2023-08-01T11:15:11;6.18;;;3.50;;
43962;SDS011;29622;45.534;9.242;2023-08-01T11:20:13;9.00;;;3.08;;
43962;SDS011;29622;45.534;9.242;2023-08-01T11:25:14;5.35;;;2.33;;
43962;SDS011;29622;45.534;9.242;2023-08-01T11:30:15;9.70;;;4.22;;
43962;SDS011;29622;45.534;9.242;2023-08-01T11:35:18;12.93;;;5.00;;
43962;SDS011;29622;45.534;9.242;2023-08-01T11:40:19;10.20;;;4.22;;
43962;SDS011;29622;45.534;9.242;2023-08-01T11:45:20;9.07;;;4.80;;
43962;SDS011;29622;45.534;9.242;2023-08-01T11:50:21;10.32;;;4.53;;
43962;SDS011;29622;45.534;9.242;2023-08-01T11:55:26;9.10;;;4.00;;
43962;SDS011;29622;45.534;9.242;2023-08-01T12:00:28;13.00;;;3.88;;
43962;SDS011;29622;45.534;9.242;2023-08-01T12:05:29;8.82;;;3.15;;
43962;SDS011;29622;45.534;9.242;2023-08-01T12:10:36;7.50;;;2.92;;
43962;SDS011;29622;45.534;9.242;2023-08-01T12:15:38;11.98;;;4.38;;
43962;SDS011;29622;45.534;9.242;2023-08-01T12:20:39;22.85;;;4.70;;
43962;SDS011;29622;45.534;9.242;2023-08-01T12:25:39;11.48;;;3.33;;
43962;SDS011;29622;45.534;9.242;2023-08-01T12:30:40;8.63;;;3.60;;
43962;SDS011;29622;45.534;9.242;2023-08-01T12:35:41;5.40;;;2.33;;
43962;SDS011;29622;45.534;9.242;2023-08-01T12:40:42;16.60;;;6.20;;
43962;SDS011;29622;45.534;9.242;2023-08-01T12:45:43;6.53;;;2.35;;
43962;SDS011;29622;45.534;9.242;2023-08-01T12:50:46;15.45;;;5.53;;
43962;SDS011;29622;45.534;9.242;2023-08-01T12:55:49;7.28;;;3.58;;
43962;SDS011;29622;45.534;9.242;2023-08-01T13:00:50;5.05;;;2.40;;
43962;SDS011;29622;45.534;9.242;2023-08-01T13:05:50;4.65;;;1.55;;
43962;SDS011;29622;45.534;9.242;2023-08-01T13:10:53;14.63;;;4.15;;
43962;SDS011;29622;45.534;9.242;2023-08-01T13:15:55;8.57;;;2.47;;
43962;SDS011;29622;45.534;9.242;2023-08-01T13:20:57;6.15;;;2.25;;
43962;SDS011;29622;45.534;9.242;2023-08-01T13:25:59;7.63;;;2.92;;
43962;SDS011;29622;45.534;9.242;2023-08-01T13:31:02;11.48;;;4.82;;
43962;SDS011;29622;45.534;9.242;2023-08-01T13:36:02;8.30;;;2.97;;
43962;SDS011;29622;45.534;9.242;2023-08-01T13:41:03;12.70;;;3.75;;
43962;SDS011;29622;45.534;9.242;2023-08-01T13:46:14;8.00;;;3.85;;
43962;SDS011;29622;45.534;9.242;2023-08-01T13:51:16;12.50;;;4.57;;
43962;SDS011;29622;45.534;9.242;2023-08-01T13:56:17;5.22;;;2.72;;
43962;SDS011;29622;45.534;9.242;2023-08-01T14:01:18;13.25;;;4.60;;
43962;SDS011;29622;45.534;9.242;2023-08-01T14:06:18;7.95;;;4.10;;
43962;SDS011;29622;45.534;9.242;2023-08-01T14:11:19;11.75;;;3.97;;
43962;SDS011;29622;45.534;9.242;2023-08-01T14:16:20;13.05;;;3.63;;
43962;SDS011;29622;45.534;9.242;2023-08-01T14:21:20;10.57;;;3.97;;
43962;SDS011;29622;45.534;9.242;2023-08-01T14:26:21;12.13;;;3.92;;
43962;SDS011;29622;45.534;9.242;2023-08-01T14:31:21;10.45;;;4.13;;
43962;SDS011;29622;45.534;9.242;2023-08-01T14:36:22;11.60;;;4.35;;
43962;SDS011;29622;45.534;9.242;2023-08-01T14:41:23;10.68;;;3.72;;
43962;SDS011;29622;45.534;9.242;2023-08-01T14:46:24;9.02;;;4.03;;
43962;SDS011;29622;45.534;9.242;2023-08-01T14:51:24;5.80;;;3.75;;
43962;SDS011;29622;45.534;9.242;2023-08-01T14:56:25;8.93;;;3.30;;
43962;SDS011;29622;45.534;9.242;2023-08-01T15:01:25;18.88;;;4.88;;
43962;SDS011;29622;45.534;9.242;2023-08-01T15:06:27;9.63;;;3.85;;
43962;SDS011;29622;45.534;9.242;2023-08-01T15:11:31;12.10;;;3.50;;
43962;SDS011;29622;45.534;9.242;2023-08-01T15:16:34;13.25;;;3.67;;
43962;SDS011;29622;45.534;9.242;2023-08-01T15:21:34;12.73;;;3.70;;
43962;SDS011;29622;45.534;9.242;2023-08-01T15:26:35;5.75;;;2.67;;
43962;SDS011;29622;45.534;9.242;2023-08-01T15:31:36;8.95;;;3.65;;
43962;SDS011;29622;45.534;9.242;2023-08-01T15:36:37;9.50;;;4.32;;
43962;SDS011;29622;45.534;9.242;2023-08-01T15:41:38;5.70;;;2.78;;
43962;SDS011;29622;45.534;9.242;2023-08-01T15:46:38;10.02;;;4.15;;
43962;SDS011;29622;45.534;9.242;2023-08-01T15:51:39;7.43;;;4.03;;
43962;SDS011;29622;45.534;9.242;2023-08-01T15:56:40;9.57;;;3.60;;
43962;SDS011;29622;45.534;9.242;2023-08-01T16:01:41;10.85;;;3.50;;
43962;SDS011;29622;45.534;9.242;2023-08-01T16:06:42;5.15;;;2.78;;
43962;SDS011;29622;45.534;9.242;2023-08-01T16:11:42;6.85;;;3.47;;
43962;SDS011;29622;45.534;9.242;2023-08-01T16:16:43;7.88;;;3.47;;
43962;SDS011;29622;45.534;9.242;2023-08-01T16:21:44;14.35;;;4.82;;
43962;SDS011;29622;45.534;9.242;2023-08-01T16:26:45;10.70;;;5.30;;
43962;SDS011;29622;45.534;9.242;2023-08-01T16:31:45;5.72;;;2.78;;
43962;SDS011;29622;45.534;9.242;2023-08-01T16:36:46;6.00;;;2.60;;
43962;SDS011;29622;45.534;9.242;2023-08-01T16:41:47;13.77;;;4.20;;
43962;SDS011;29622;45.534;9.242;2023-08-01T16:46:47;9.45;;;4.07;;
43962;SDS011;29622;45.534;9.242;2023-08-01T16:51:48;21.35;;;6.03;;
43962;SDS011;29622;45.534;9.242;2023-08-01T16:56:48;4.40;;;2.50;;
43962;SDS011;29622;45.534;9.242;2023-08-01T17:01:49;3.72;;;2.20;;
43962;SDS011;29622;45.534;9.242;2023-08-01T17:06:50;7.57;;;3.20;;
43962;SDS011;29622;45.534;9.242;2023-08-01T17:11:51;9.95;;;4.70;;
43962;SDS011;29622;45.534;9.242;2023-08-01T17:16:51;9.93;;;3.85;;
43962;SDS011;29622;45.534;9.242;2023-08-01T17:21:52;4.55;;;2.97;;
43962;SDS011;29622;45.534;9.242;2023-08-01T17:26:52;12.70;;;4.40;;
43962;SDS011;29622;45.534;9.242;2023-08-01T17:31:53;9.52;;;3.65;;
43962;SDS011;29622;45.534;9.242;2023-08-01T17:36:54;8.38;;;3.63;;
43962;SDS011;29622;45.534;9.242;2023-08-01T17:41:55;5.15;;;2.92;;
43962;SDS011;29622;45.534;9.242;2023-08-01T17:47:00;10.25;;;3.70;;
43962;SDS011;29622;45.534;9.242;2023-08-01T17:52:01;19.98;;;5.35;;
43962;SDS011;29622;45.534;9.242;2023-08-01T17:57:01;12.93;;;4.30;;
43962;SDS011;29622;45.534;9.242;2023-08-01T18:02:02;12.10;;;4.63;;
43962;SDS011;29622;45.534;9.242;2023-08-01T18:07:05;16.95;;;4.45;;
43962;SDS011;29622;45.534;9.242;2023-08-01T18:12:06;17.35;;;4.70;;
43962;SDS011;29622;45.534;9.242;2023-08-01T18:17:07;41.33;;;9.13;;
43962;SDS011;29622;45.534;9.242;2023-08-01T18:22:08;12.10;;;5.22;;
43962;SDS011;29622;45.534;9.242;2023-08-01T18:27:08;11.38;;;4.97;;
43962;SDS011;29622;45.534;9.242;2023-08-01T18:32:09;10.23;;;4.18;;
43962;SDS011;29622;45.534;9.242;2023-08-01T18:37:10;8.38;;;4.63;;
43962;SDS011;29622;45.534;9.242;2023-08-01T18:42:10;14.98;;;4.50;;
43962;SDS011;29622;45.534;9.242;2023-08-01T18:47:11;16.75;;;5.15;;
43962;SDS011;29622;45.534;9.242;2023-08-01T18:52:12;16.58;;;4.43;;
43962;SDS011;29622;45.534;9.242;2023-08-01T18:57:12;7.30;;;3.00;;
43962;SDS011;29622;45.534;9.242;2023-08-01T19:02:13;12.85;;;4.93;;
43962;SDS011;29622;45.534;9.242;2023-08-01T19:07:13;22.25;;;5.68;;
43962;SDS011;29622;45.534;9.242;2023-08-01T19:12:14;9.68;;;4.60;;
43962;SDS011;29622;45.534;9.242;2023-08-01T19:17:15;11.50;;;3.50;;
43962;SDS011;29622;45.534;9.242;2023-08-01T19:22:15;10.80;;;4.43;;
43962;SDS011;29622;45.534;9.242;2023-08-01T19:27:16;15.45;;;4.90;;
43962;SDS011;29622;45.534;9.242;2023-08-01T19:32:17;11.98;;;3.90;;
43962;SDS011;29622;45.534;9.242;2023-08-01T19:37:18;18.38;;;5.40;;
43962;SDS011;29622;45.534;9.242;2023-08-01T19:42:19;10.18;;;4.30;;
43962;SDS011;29622;45.534;9.242;2023-08-01T19:47:20;10.18;;;4.72;;
43962;SDS011;29622;45.534;9.242;2023-08-01T19:52:21;13.32;;;5.28;;
43962;SDS011;29622;45.534;9.242;2023-08-01T19:57:22;15.88;;;5.30;;
43962;SDS011;29622;45.534;9.242;2023-08-01T20:02:23;7.57;;;4.05;;
43962;SDS011;29622;45.534;9.242;2023-08-01T20:07:23;10.88;;;4.95;;
43962;SDS011;29622;45.534;9.242;2023-08-01T20:12:24;22.13;;;4.78;;
43962;SDS011;29622;45.534;9.242;2023-08-01T20:17:24;10.05;;;4.78;;
43962;SDS011;29622;45.534;9.242;2023-08-01T20:22:25;12.55;;;4.88;;
43962;SDS011;29622;45.534;9.242;2023-08-01T20:27:25;14.48;;;4.90;;
43962;SDS011;29622;45.534;9.242;2023-08-01T20:32:26;20.10;;;6.65;;
43962;SDS011;29622;45.534;9.242;2023-08-01T20:37:27;12.63;;;4.55;;
43962;SDS011;29622;45.534;9.242;2023-08-01T20:42:27;14.30;;;5.00;;
43962;SDS011;29622;45.534;9.242;2023-08-01T20:47:28;5.38;;;3.00;;
43962;SDS011;29622;45.534;9.242;2023-08-01T20:52:29;11.85;;;4.90;;
43962;SDS011;29622;45.534;9.242;2023-08-01T20:57:29;13.88;;;5.78;;
43962;SDS011;29622;45.534;9.242;2023-08-01T21:02:30;16.75;;;5.50;;
43962;SDS011;29622;45.534;9.242;2023-08-01T21:07:31;14.95;;;5.13;;
43962;SDS011;29622;45.534;9.242;2023-08-01T21:12:31;13.73;;;4.85;;
43962;SDS011;29622;45.534;9.242;2023-08-01T21:17:32;11.45;;;4.57;;
43962;SDS011;29622;45.534;9.242;2023-08-01T21:22:33;16.92;;;5.65;;
43962;SDS011;29622;45.534;9.242;2023-08-01T21:27:34;14.23;;;6.82;;
43962;SDS011;29622;45.534;9.242;2023-08-01T21:32:34;11.70;;;4.90;;
43962;SDS011;29622;45.534;9.242;2023-08-01T21:37:35;16.45;;;6.00;;
43962;SDS011;29622;45.534;9.242;2023-08-01T21:42:35;20.90;;;5.38;;
43962;SDS011;29622;45.534;9.242;2023-08-01T21:47:36;18.42;;;6.60;;
43962;SDS011;29622;45.534;9.242;2023-08-01T21:52:38;14.43;;;4.57;;
43962;SDS011;29622;45.534;9.242;2023-08-01T21:57:39;12.50;;;4.75;;
43962;SDS011;29622;45.534;9.242;2023-08-01T22:02:40;11.02;;;5.18;;
43962;SDS011;29622;45.534;9.242;2023-08-01T22:07:41;14.77;;;5.43;;
43962;SDS011;29622;45.534;9.242;2023-08-01T22:12:41;21.48;;;6.85;;
43962;SDS011;29622;45.534;9.242;2023-08-01T22:17:45;8.05;;;4.00;;
43962;SDS011;29622;45.534;9.242;2023-08-01T22:22:46;13.00;;;5.15;;
43962;SDS011;29622;45.534;9.242;2023-08-01T22:27:48;19.25;;;5.65;;
43962;SDS011;29622;45.534;9.242;2023-08-01T22:32:51;18.80;;;7.47;;
43962;SDS011;29622;45.534;9.242;2023-08-01T22:37:51;27.02;;;5.97;;
43962;SDS011;29622;45.534;9.242;2023-08-01T22:42:52;12.07;;;5.07;;
43962;SDS011;29622;45.534;9.242;2023-08-01T22:47:53;13.30;;;5.10;;
43962;SDS011;29622;45.534;9.242;2023-08-01T22:52:54;13.80;;;5.82;;
43962;SDS011;29622;45.534;9.242;2023-08-01T22:57:54;18.02;;;6.07;;
43962;SDS011;29622;45.534;9.242;2023-08-01T23:02:55;16.95;;;6.25;;
43962;SDS011;29622;45.534;9.242;2023-08-01T23:07:55;12.05;;;5.20;;
43962;SDS011;29622;45.534;9.242;2023-08-01T23:12:57;22.25;;;7.38;;
43962;SDS011;29622;45.534;9.242;2023-08-01T23:17:57;17.00;;;5.38;;
43962;SDS011;29622;45.534;9.242;2023-08-01T23:22:58;10.60;;;4.78;;
43962;SDS011;29622;45.534;9.242;2023-08-01T23:27:59;17.10;;;6.10;;
43962;SDS011;29622;45.534;9.242;2023-08-01T23:32:59;15.48;;;6.68;;
43962;SDS011;29622;45.534;9.242;2023-08-01T23:38:01;14.93;;;5.95;;
43962;SDS011;29622;45.534;9.242;2023-08-01T23:43:02;18.40;;;5.00;;
43962;SDS011;29622;45.534;9.242;2023-08-01T23:48:03;16.42;;;5.20;;
43962;SDS011;29622;45.534;9.242;2023-08-01T23:53:03;18.70;;;6.28;;
43962;SDS011;29622;45.534;9.242;2023-08-01T23:58:04;19.25;;;6.25;;
